SWA176 KDEN-KSAN
Flight info
| Callsign | SWA176 |
|---|---|
| Flight time | 2h 31m |
| Altitude | 36000 |
| Route | BAYLR6 TEHRU PLNDL Q86 TTRUE LUCKI1 |
| Aircraft | B738/M-SADE2E3GIJ4RWZ/LB1D1 |
Departure
| Time | 2026-04-23 09:21 |
|---|---|
| Airport | Denver International Airport (KDEN) |
Arrival
| Time | 2026-04-23 11:52 |
|---|---|
| Airport | San Diego International Airport (KSAN) |
| Time | Latitude | Longitude | Altitude | Speed | Heading |
|---|---|---|---|---|---|
| 2026-04-23 08:37 | 39.86253 | -104.67253 | 5395 ft | 0 kts | 0° |
| 2026-04-23 09:09 | 39.86247 | -104.67254 | 5395 ft | 2 kts | 0° |
| 2026-04-23 09:09 | 39.86232 | -104.67254 | 5396 ft | 2 kts | 359° |
| 2026-04-23 09:09 | 39.86217 | -104.67254 | 5396 ft | 2 kts | 360° |
| 2026-04-23 09:10 | 39.86202 | -104.67254 | 5396 ft | 2 kts | 359° |
| 2026-04-23 09:10 | 39.86173 | -104.67261 | 5396 ft | 2 kts | 29° |
| 2026-04-23 09:10 | 39.86165 | -104.67268 | 5396 ft | 0 kts | 41° |
| 2026-04-23 09:11 | 39.86160 | -104.67274 | 5396 ft | 0 kts | 44° |
| 2026-04-23 09:11 | 39.86156 | -104.67279 | 5396 ft | 0 kts | 44° |
| 2026-04-23 09:11 | 39.86153 | -104.67284 | 5396 ft | 0 kts | 44° |
| 2026-04-23 09:11 | 39.86149 | -104.67290 | 5395 ft | 0 kts | 44° |
| 2026-04-23 09:12 | 39.86145 | -104.67294 | 5395 ft | 0 kts | 43° |
| 2026-04-23 09:12 | 39.86142 | -104.67299 | 5395 ft | 0 kts | 43° |
| 2026-04-23 09:12 | 39.86139 | -104.67303 | 5395 ft | 0 kts | 44° |
| 2026-04-23 09:12 | 39.86136 | -104.67308 | 5395 ft | 0 kts | 44° |
| 2026-04-23 09:13 | 39.86132 | -104.67313 | 5395 ft | 0 kts | 44° |
| 2026-04-23 09:13 | 39.86128 | -104.67318 | 5395 ft | 0 kts | 44° |
| 2026-04-23 09:13 | 39.86125 | -104.67323 | 5395 ft | 0 kts | 44° |
| 2026-04-23 09:13 | 39.86121 | -104.67327 | 5394 ft | 0 kts | 44° |
| 2026-04-23 09:14 | 39.86118 | -104.67333 | 5394 ft | 0 kts | 44° |
| 2026-04-23 09:14 | 39.86114 | -104.67337 | 5394 ft | 0 kts | 44° |
| 2026-04-23 09:14 | 39.86111 | -104.67341 | 5394 ft | 0 kts | 43° |
| 2026-04-23 09:17 | 39.86117 | -104.67333 | 5394 ft | 5 kts | 49° |
| 2026-04-23 09:17 | 39.86131 | -104.67244 | 5399 ft | 14 kts | 91° |
| 2026-04-23 09:17 | 39.86130 | -104.67139 | 5404 ft | 11 kts | 90° |
| 2026-04-23 09:17 | 39.86129 | -104.66974 | 5411 ft | 24 kts | 91° |
| 2026-04-23 09:18 | 39.86128 | -104.66745 | 5418 ft | 23 kts | 90° |
| 2026-04-23 09:18 | 39.86117 | -104.66557 | 5421 ft | 18 kts | 106° |
| 2026-04-23 09:18 | 39.86105 | -104.66402 | 5423 ft | 16 kts | 90° |
| 2026-04-23 09:18 | 39.86105 | -104.66270 | 5421 ft | 13 kts | 90° |
| 2026-04-23 09:19 | 39.86105 | -104.66143 | 5418 ft | 14 kts | 90° |
| 2026-04-23 09:19 | 39.86089 | -104.66033 | 5415 ft | 11 kts | 139° |
| 2026-04-23 09:19 | 39.86042 | -104.66019 | 5415 ft | 0 kts | 180° |
| 2026-04-23 09:19 | 39.86039 | -104.66019 | 5415 ft | 2 kts | 180° |
| 2026-04-23 09:20 | 39.85869 | -104.66019 | 5416 ft | 55 kts | 180° |
| 2026-04-23 09:20 | 39.85270 | -104.66024 | 5411 ft | 115 kts | 181° |
| 2026-04-23 09:20 | 39.84281 | -104.66034 | 5405 ft | 164 kts | 177° |
| 2026-04-23 09:20 | 39.83159 | -104.66036 | 5997 ft | 160 kts | 176° |
| 2026-04-23 09:21 | 39.82019 | -104.66019 | 6389 ft | 170 kts | 178° |
| 2026-04-23 09:21 | 39.80782 | -104.66080 | 6681 ft | 183 kts | 185° |
| 2026-04-23 09:21 | 39.79559 | -104.66683 | 6958 ft | 199 kts | 215° |
| 2026-04-23 09:21 | 39.78544 | -104.67955 | 7270 ft | 211 kts | 225° |
| 2026-04-23 09:22 | 39.77461 | -104.69366 | 7581 ft | 225 kts | 223° |
| 2026-04-23 09:22 | 39.76382 | -104.70909 | 7946 ft | 237 kts | 235° |
| 2026-04-23 09:22 | 39.75813 | -104.72935 | 8303 ft | 249 kts | 265° |
| 2026-04-23 09:22 | 39.75955 | -104.75215 | 8929 ft | 258 kts | 276° |
| 2026-04-23 09:23 | 39.76250 | -104.77539 | 9613 ft | 266 kts | 277° |
| 2026-04-23 09:23 | 39.76526 | -104.79887 | 9929 ft | 265 kts | 276° |
| 2026-04-23 09:23 | 39.76774 | -104.82268 | 9972 ft | 266 kts | 275° |
| 2026-04-23 09:23 | 39.77008 | -104.84660 | 9980 ft | 266 kts | 274° |
| 2026-04-23 09:24 | 39.77239 | -104.87044 | 9982 ft | 264 kts | 274° |
| 2026-04-23 09:24 | 39.77453 | -104.89396 | 9979 ft | 261 kts | 271° |
| 2026-04-23 09:24 | 39.77376 | -104.91784 | 10061 ft | 275 kts | 258° |
| 2026-04-23 09:24 | 39.76852 | -104.94211 | 10614 ft | 288 kts | 251° |
| 2026-04-23 09:25 | 39.76210 | -104.96738 | 11164 ft | 301 kts | 251° |
| 2026-04-23 09:25 | 39.75572 | -104.99387 | 11665 ft | 316 kts | 252° |
| 2026-04-23 09:25 | 39.74933 | -105.02122 | 12354 ft | 323 kts | 251° |
| 2026-04-23 09:25 | 39.74186 | -105.04869 | 13407 ft | 321 kts | 248° |
| 2026-04-23 09:26 | 39.73352 | -105.07495 | 14364 ft | 320 kts | 246° |
| 2026-04-23 09:26 | 39.72459 | -105.10138 | 15177 ft | 325 kts | 245° |
| 2026-04-23 09:26 | 39.71548 | -105.12825 | 16031 ft | 328 kts | 246° |
| 2026-04-23 09:26 | 39.70643 | -105.15524 | 16930 ft | 328 kts | 246° |
| 2026-04-23 09:27 | 39.69744 | -105.18226 | 17684 ft | 333 kts | 246° |
| 2026-04-23 09:27 | 39.68833 | -105.20986 | 18511 ft | 336 kts | 246° |
| 2026-04-23 09:27 | 39.67902 | -105.23811 | 19213 ft | 343 kts | 246° |
| 2026-04-23 09:27 | 39.66964 | -105.26665 | 20011 ft | 346 kts | 245° |
| 2026-04-23 09:28 | 39.66013 | -105.29551 | 20680 ft | 353 kts | 245° |
| 2026-04-23 09:28 | 39.65045 | -105.32484 | 21432 ft | 356 kts | 246° |
| 2026-04-23 09:28 | 39.64082 | -105.35403 | 22114 ft | 361 kts | 245° |
| 2026-04-23 09:28 | 39.63089 | -105.38404 | 22858 ft | 363 kts | 245° |
| 2026-04-23 09:29 | 39.62091 | -105.41424 | 23579 ft | 366 kts | 244° |
| 2026-04-23 09:29 | 39.61106 | -105.44405 | 24321 ft | 367 kts | 245° |
| 2026-04-23 09:29 | 39.60093 | -105.47472 | 24967 ft | 370 kts | 245° |
| 2026-04-23 09:29 | 39.59080 | -105.50536 | 25536 ft | 375 kts | 245° |
| 2026-04-23 09:30 | 39.58047 | -105.53646 | 26111 ft | 379 kts | 246° |
| 2026-04-23 09:30 | 39.57009 | -105.56761 | 26792 ft | 380 kts | 245° |
| 2026-04-23 09:30 | 39.55962 | -105.59895 | 27415 ft | 382 kts | 246° |
| 2026-04-23 09:30 | 39.54917 | -105.63067 | 27996 ft | 384 kts | 246° |
| 2026-04-23 09:31 | 39.53949 | -105.66320 | 28623 ft | 385 kts | 248° |
| 2026-04-23 09:31 | 39.53052 | -105.69563 | 29212 ft | 387 kts | 249° |
| 2026-04-23 09:31 | 39.52171 | -105.72829 | 29760 ft | 389 kts | 249° |
| 2026-04-23 09:31 | 39.51277 | -105.76150 | 30330 ft | 390 kts | 250° |
| 2026-04-23 09:32 | 39.50383 | -105.79459 | 30769 ft | 394 kts | 250° |
| 2026-04-23 09:32 | 39.49483 | -105.82767 | 31312 ft | 393 kts | 250° |
| 2026-04-23 09:32 | 39.48578 | -105.86073 | 32008 ft | 389 kts | 250° |
| 2026-04-23 09:32 | 39.47670 | -105.89370 | 32575 ft | 388 kts | 251° |
| 2026-04-23 09:33 | 39.46762 | -105.92657 | 32887 ft | 392 kts | 250° |
| 2026-04-23 09:33 | 39.45836 | -105.95992 | 33220 ft | 396 kts | 251° |
| 2026-04-23 09:33 | 39.44914 | -105.99294 | 33637 ft | 397 kts | 250° |
| 2026-04-23 09:33 | 39.43975 | -106.02648 | 34111 ft | 396 kts | 250° |
| 2026-04-23 09:34 | 39.43048 | -106.05949 | 34587 ft | 394 kts | 251° |
| 2026-04-23 09:34 | 39.42114 | -106.09272 | 34978 ft | 394 kts | 251° |
| 2026-04-23 09:34 | 39.41177 | -106.12606 | 35363 ft | 394 kts | 251° |
| 2026-04-23 09:34 | 39.40238 | -106.15937 | 35786 ft | 395 kts | 250° |
| 2026-04-23 09:35 | 39.39308 | -106.19230 | 35973 ft | 398 kts | 250° |
| 2026-04-23 09:35 | 39.37416 | -106.25929 | 35961 ft | 396 kts | 250° |
| 2026-04-23 09:36 | 39.35514 | -106.32636 | 35954 ft | 395 kts | 250° |
| 2026-04-23 09:36 | 39.33611 | -106.39318 | 35963 ft | 401 kts | 251° |
| 2026-04-23 09:37 | 39.31715 | -106.45982 | 35965 ft | 397 kts | 250° |
| 2026-04-23 09:37 | 39.29798 | -106.52708 | 35952 ft | 400 kts | 250° |
| 2026-04-23 09:38 | 39.27898 | -106.59374 | 35980 ft | 399 kts | 250° |
| 2026-04-23 09:38 | 39.25977 | -106.66051 | 36000 ft | 397 kts | 250° |
| 2026-04-23 09:39 | 39.23694 | -106.72545 | 36013 ft | 399 kts | 242° |
| 2026-04-23 09:39 | 39.20502 | -106.78384 | 36042 ft | 400 kts | 235° |
| 2026-04-23 09:39 | 39.18749 | -106.81197 | 36222 ft | 402 kts | 235° |
| 2026-04-23 09:40 | 39.17008 | -106.83997 | 36121 ft | 398 kts | 235° |
| 2026-04-23 09:40 | 39.13607 | -106.89507 | 36054 ft | 396 kts | 235° |
| 2026-04-23 09:41 | 39.10184 | -106.95076 | 36067 ft | 399 kts | 235° |
| 2026-04-23 09:41 | 39.06789 | -107.00599 | 36072 ft | 392 kts | 235° |
| 2026-04-23 09:42 | 39.03399 | -107.06117 | 36116 ft | 397 kts | 236° |
| 2026-04-23 09:42 | 39.00029 | -107.11586 | 36041 ft | 389 kts | 235° |
| 2026-04-23 09:43 | 38.96630 | -107.17098 | 36033 ft | 393 kts | 236° |
| 2026-04-23 09:43 | 38.93251 | -107.22561 | 36048 ft | 393 kts | 236° |
| 2026-04-23 09:44 | 38.89851 | -107.28048 | 36042 ft | 391 kts | 235° |
| 2026-04-23 09:44 | 38.86453 | -107.33526 | 36084 ft | 396 kts | 236° |
| 2026-04-23 09:45 | 38.83074 | -107.38958 | 36093 ft | 388 kts | 237° |
| 2026-04-23 09:45 | 38.79681 | -107.44415 | 36101 ft | 392 kts | 237° |
| 2026-04-23 09:46 | 38.76295 | -107.49851 | 36117 ft | 392 kts | 236° |
| 2026-04-23 09:46 | 38.72923 | -107.55248 | 36127 ft | 389 kts | 236° |
| 2026-04-23 09:47 | 38.69535 | -107.60661 | 36143 ft | 390 kts | 236° |
| 2026-04-23 09:47 | 38.66166 | -107.66035 | 36141 ft | 387 kts | 236° |
| 2026-04-23 09:48 | 38.62794 | -107.71410 | 36127 ft | 388 kts | 236° |
| 2026-04-23 09:48 | 38.59417 | -107.76779 | 36127 ft | 386 kts | 236° |
| 2026-04-23 09:49 | 38.56072 | -107.82095 | 36095 ft | 387 kts | 236° |
| 2026-04-23 09:49 | 38.52714 | -107.87411 | 36159 ft | 384 kts | 237° |
| 2026-04-23 09:49 | 38.51030 | -107.90077 | 35990 ft | 387 kts | 236° |
| 2026-04-23 09:50 | 38.49335 | -107.92763 | 36032 ft | 390 kts | 236° |
| 2026-04-23 09:50 | 38.47652 | -107.95426 | 36191 ft | 389 kts | 236° |
| 2026-04-23 09:50 | 38.45950 | -107.98117 | 36099 ft | 384 kts | 236° |
| 2026-04-23 09:50 | 38.44292 | -108.00725 | 35996 ft | 380 kts | 236° |
| 2026-04-23 09:51 | 38.42623 | -108.03355 | 36298 ft | 385 kts | 237° |
| 2026-04-23 09:51 | 38.40932 | -108.06023 | 36063 ft | 385 kts | 236° |
| 2026-04-23 09:51 | 38.39262 | -108.08651 | 36111 ft | 388 kts | 237° |
| 2026-04-23 09:52 | 38.35876 | -108.13978 | 36126 ft | 383 kts | 237° |
| 2026-04-23 09:52 | 38.32516 | -108.19251 | 36107 ft | 387 kts | 237° |
| 2026-04-23 09:53 | 38.29154 | -108.24521 | 36114 ft | 385 kts | 237° |
| 2026-04-23 09:53 | 38.25794 | -108.29772 | 36113 ft | 382 kts | 236° |
| 2026-04-23 09:54 | 38.22430 | -108.35023 | 36111 ft | 381 kts | 237° |
| 2026-04-23 09:54 | 38.19110 | -108.40208 | 36110 ft | 381 kts | 237° |
| 2026-04-23 09:55 | 38.15774 | -108.45407 | 36075 ft | 379 kts | 237° |
| 2026-04-23 09:55 | 38.12438 | -108.50590 | 36086 ft | 379 kts | 237° |
| 2026-04-23 09:56 | 38.09102 | -108.55771 | 36076 ft | 380 kts | 237° |
| 2026-04-23 09:56 | 38.05774 | -108.60925 | 36077 ft | 378 kts | 237° |
| 2026-04-23 09:57 | 38.02463 | -108.66043 | 36062 ft | 376 kts | 237° |
| 2026-04-23 09:57 | 37.99144 | -108.71174 | 36059 ft | 377 kts | 237° |
| 2026-04-23 09:58 | 37.95821 | -108.76298 | 36039 ft | 375 kts | 237° |
| 2026-04-23 09:58 | 37.92495 | -108.81419 | 36044 ft | 379 kts | 237° |
| 2026-04-23 09:59 | 37.89160 | -108.86541 | 36028 ft | 376 kts | 237° |
| 2026-04-23 09:59 | 37.85852 | -108.91618 | 36021 ft | 377 kts | 237° |
| 2026-04-23 10:00 | 37.82521 | -108.96717 | 36029 ft | 375 kts | 237° |
| 2026-04-23 10:00 | 37.79189 | -109.01816 | 36034 ft | 376 kts | 237° |
| 2026-04-23 10:01 | 37.75856 | -109.06917 | 36448 ft | 380 kts | 237° |
| 2026-04-23 10:01 | 37.74160 | -109.09506 | 36871 ft | 379 kts | 237° |
| 2026-04-23 10:01 | 37.72491 | -109.12050 | 37209 ft | 380 kts | 237° |
| 2026-04-23 10:01 | 37.70797 | -109.14635 | 37452 ft | 384 kts | 237° |
| 2026-04-23 10:02 | 37.69101 | -109.17220 | 37821 ft | 384 kts | 237° |
| 2026-04-23 10:02 | 37.67380 | -109.19836 | 38021 ft | 386 kts | 237° |
| 2026-04-23 10:02 | 37.65670 | -109.22434 | 38023 ft | 388 kts | 237° |
| 2026-04-23 10:03 | 37.62259 | -109.27602 | 38032 ft | 382 kts | 237° |
| 2026-04-23 10:03 | 37.58855 | -109.32760 | 38025 ft | 383 kts | 237° |
| 2026-04-23 10:04 | 37.55454 | -109.37912 | 38041 ft | 382 kts | 238° |
| 2026-04-23 10:04 | 37.52084 | -109.43004 | 38002 ft | 378 kts | 237° |
| 2026-04-23 10:05 | 37.48702 | -109.48110 | 37998 ft | 381 kts | 237° |
| 2026-04-23 10:05 | 37.45318 | -109.53200 | 38030 ft | 379 kts | 237° |
| 2026-04-23 10:06 | 37.41942 | -109.58280 | 38038 ft | 380 kts | 237° |
| 2026-04-23 10:06 | 37.38560 | -109.63361 | 38037 ft | 379 kts | 238° |
| 2026-04-23 10:07 | 37.35181 | -109.68426 | 38041 ft | 379 kts | 237° |
| 2026-04-23 10:07 | 37.31805 | -109.73476 | 38041 ft | 378 kts | 238° |
| 2026-04-23 10:08 | 37.28399 | -109.78568 | 38048 ft | 379 kts | 237° |
| 2026-04-23 10:08 | 37.25038 | -109.83579 | 38065 ft | 377 kts | 238° |
| 2026-04-23 10:09 | 37.19980 | -109.91113 | 38031 ft | 376 kts | 237° |
| 2026-04-23 10:09 | 37.16604 | -109.96137 | 38075 ft | 378 kts | 238° |
| 2026-04-23 10:10 | 37.13249 | -110.01109 | 38036 ft | 375 kts | 238° |
| 2026-04-23 10:10 | 37.09860 | -110.06132 | 38052 ft | 376 kts | 238° |
| 2026-04-23 10:11 | 37.06517 | -110.11079 | 38031 ft | 374 kts | 238° |
| 2026-04-23 10:11 | 37.03159 | -110.16048 | 38053 ft | 374 kts | 238° |
| 2026-04-23 10:12 | 36.99804 | -110.21001 | 38024 ft | 374 kts | 238° |
| 2026-04-23 10:12 | 36.96443 | -110.25951 | 38032 ft | 374 kts | 238° |
| 2026-04-23 10:13 | 36.93086 | -110.30888 | 38029 ft | 372 kts | 238° |
| 2026-04-23 10:13 | 36.89732 | -110.35811 | 38035 ft | 374 kts | 238° |
| 2026-04-23 10:14 | 36.86364 | -110.40758 | 38043 ft | 374 kts | 238° |
| 2026-04-23 10:14 | 36.82987 | -110.45701 | 38043 ft | 373 kts | 238° |
| 2026-04-23 10:15 | 36.79635 | -110.50602 | 38048 ft | 372 kts | 238° |
| 2026-04-23 10:15 | 36.76256 | -110.55538 | 38041 ft | 373 kts | 238° |
| 2026-04-23 10:16 | 36.72907 | -110.60420 | 38046 ft | 373 kts | 238° |
| 2026-04-23 10:16 | 36.69532 | -110.65333 | 38057 ft | 373 kts | 238° |
| 2026-04-23 10:17 | 36.66131 | -110.70277 | 38049 ft | 374 kts | 238° |
| 2026-04-23 10:17 | 36.62761 | -110.75167 | 38047 ft | 372 kts | 238° |
| 2026-04-23 10:18 | 36.59392 | -110.80052 | 38053 ft | 374 kts | 238° |
| 2026-04-23 10:18 | 36.56010 | -110.84950 | 38058 ft | 371 kts | 238° |
| 2026-04-23 10:19 | 36.52654 | -110.89797 | 38057 ft | 372 kts | 238° |
| 2026-04-23 10:19 | 36.49297 | -110.94643 | 38048 ft | 371 kts | 238° |
| 2026-04-23 10:20 | 36.45912 | -110.99521 | 38066 ft | 371 kts | 238° |
| 2026-04-23 10:20 | 36.42549 | -111.04359 | 38048 ft | 370 kts | 238° |
| 2026-04-23 10:21 | 36.39188 | -111.09190 | 38057 ft | 372 kts | 238° |
| 2026-04-23 10:21 | 36.35802 | -111.14048 | 38052 ft | 373 kts | 238° |
| 2026-04-23 10:22 | 36.32421 | -111.18883 | 38056 ft | 372 kts | 238° |
| 2026-04-23 10:22 | 36.29058 | -111.23695 | 38057 ft | 371 kts | 238° |
| 2026-04-23 10:23 | 36.25676 | -111.28526 | 38054 ft | 370 kts | 238° |
| 2026-04-23 10:23 | 36.22321 | -111.33309 | 38060 ft | 368 kts | 238° |
| 2026-04-23 10:24 | 36.18946 | -111.38119 | 38051 ft | 371 kts | 238° |
| 2026-04-23 10:24 | 36.15572 | -111.42921 | 38062 ft | 370 kts | 238° |
| 2026-04-23 10:25 | 36.12186 | -111.47738 | 38058 ft | 370 kts | 239° |
| 2026-04-23 10:25 | 36.08799 | -111.52541 | 38067 ft | 371 kts | 238° |
| 2026-04-23 10:26 | 36.05401 | -111.57355 | 38072 ft | 372 kts | 238° |
| 2026-04-23 10:26 | 36.02042 | -111.62098 | 38076 ft | 366 kts | 239° |
| 2026-04-23 10:27 | 35.98672 | -111.66869 | 38075 ft | 374 kts | 237° |
| 2026-04-23 10:27 | 35.95264 | -111.71674 | 38074 ft | 369 kts | 238° |
| 2026-04-23 10:28 | 35.91867 | -111.76464 | 38071 ft | 370 kts | 237° |
| 2026-04-23 10:28 | 35.88485 | -111.81211 | 38078 ft | 370 kts | 238° |
| 2026-04-23 10:29 | 35.85126 | -111.85970 | 38078 ft | 368 kts | 239° |
| 2026-04-23 10:29 | 35.82264 | -111.91069 | 38083 ft | 358 kts | 247° |
| 2026-04-23 10:30 | 35.79843 | -111.96389 | 38082 ft | 356 kts | 248° |
| 2026-04-23 10:30 | 35.77463 | -112.01746 | 38086 ft | 358 kts | 248° |
| 2026-04-23 10:31 | 35.75069 | -112.07093 | 38090 ft | 356 kts | 248° |
| 2026-04-23 10:31 | 35.72668 | -112.12386 | 38086 ft | 356 kts | 247° |
| 2026-04-23 10:32 | 35.70198 | -112.17681 | 38086 ft | 358 kts | 247° |
| 2026-04-23 10:32 | 35.67721 | -112.22919 | 38090 ft | 355 kts | 247° |
| 2026-04-23 10:33 | 35.65253 | -112.28146 | 38089 ft | 356 kts | 248° |
| 2026-04-23 10:33 | 35.62769 | -112.33427 | 38141 ft | 355 kts | 248° |
| 2026-04-23 10:34 | 35.60302 | -112.38652 | 38115 ft | 357 kts | 248° |
| 2026-04-23 10:34 | 35.57854 | -112.43886 | 38094 ft | 355 kts | 248° |
| 2026-04-23 10:35 | 35.55420 | -112.49113 | 38090 ft | 353 kts | 248° |
| 2026-04-23 10:35 | 35.52996 | -112.54328 | 38086 ft | 352 kts | 248° |
| 2026-04-23 10:36 | 35.50571 | -112.59511 | 38079 ft | 353 kts | 248° |
| 2026-04-23 10:36 | 35.48139 | -112.64700 | 38077 ft | 352 kts | 248° |
| 2026-04-23 10:37 | 35.45684 | -112.69936 | 38076 ft | 353 kts | 247° |
| 2026-04-23 10:37 | 35.43257 | -112.75098 | 38074 ft | 352 kts | 247° |
| 2026-04-23 10:38 | 35.40820 | -112.80280 | 38077 ft | 350 kts | 247° |
| 2026-04-23 10:38 | 35.38388 | -112.85445 | 38081 ft | 351 kts | 248° |
| 2026-04-23 10:39 | 35.35953 | -112.90605 | 38081 ft | 350 kts | 247° |
| 2026-04-23 10:39 | 35.33529 | -112.95726 | 38085 ft | 348 kts | 247° |
| 2026-04-23 10:40 | 35.31089 | -113.00886 | 38081 ft | 350 kts | 248° |
| 2026-04-23 10:40 | 35.28656 | -113.06006 | 38080 ft | 350 kts | 248° |
| 2026-04-23 10:41 | 35.26201 | -113.11180 | 38079 ft | 352 kts | 246° |
| 2026-04-23 10:41 | 35.23764 | -113.16311 | 38079 ft | 348 kts | 247° |
| 2026-04-23 10:42 | 35.21324 | -113.21461 | 38081 ft | 350 kts | 247° |
| 2026-04-23 10:42 | 35.18882 | -113.26578 | 38077 ft | 351 kts | 247° |
| 2026-04-23 10:43 | 35.16440 | -113.31690 | 38077 ft | 349 kts | 247° |
| 2026-04-23 10:43 | 35.13989 | -113.36803 | 38082 ft | 351 kts | 248° |
| 2026-04-23 10:44 | 35.11535 | -113.41928 | 38074 ft | 350 kts | 248° |
| 2026-04-23 10:44 | 35.09079 | -113.47050 | 38070 ft | 350 kts | 246° |
| 2026-04-23 10:45 | 35.06618 | -113.52165 | 38060 ft | 350 kts | 247° |
| 2026-04-23 10:45 | 35.04142 | -113.57305 | 38059 ft | 351 kts | 247° |
| 2026-04-23 10:46 | 35.01673 | -113.62437 | 38046 ft | 350 kts | 246° |
| 2026-04-23 10:46 | 34.99219 | -113.67526 | 38040 ft | 354 kts | 246° |
| 2026-04-23 10:47 | 34.96742 | -113.72649 | 38040 ft | 350 kts | 247° |
| 2026-04-23 10:47 | 34.94262 | -113.77776 | 38033 ft | 352 kts | 246° |
| 2026-04-23 10:48 | 34.91788 | -113.82879 | 38035 ft | 353 kts | 245° |
| 2026-04-23 10:48 | 34.89299 | -113.88010 | 38020 ft | 351 kts | 246° |
| 2026-04-23 10:49 | 34.86824 | -113.93082 | 38014 ft | 349 kts | 246° |
| 2026-04-23 10:49 | 34.84297 | -113.98103 | 38008 ft | 350 kts | 245° |
| 2026-04-23 10:50 | 34.81694 | -114.03129 | 37999 ft | 349 kts | 244° |
| 2026-04-23 10:50 | 34.79114 | -114.08100 | 37997 ft | 349 kts | 245° |
| 2026-04-23 10:51 | 34.76525 | -114.13105 | 37991 ft | 351 kts | 245° |
| 2026-04-23 10:51 | 34.73926 | -114.18134 | 37979 ft | 354 kts | 246° |
| 2026-04-23 10:52 | 34.71316 | -114.23160 | 37973 ft | 348 kts | 245° |
| 2026-04-23 10:52 | 34.68734 | -114.28133 | 37963 ft | 353 kts | 245° |
| 2026-04-23 10:53 | 34.66113 | -114.33171 | 37960 ft | 353 kts | 245° |
| 2026-04-23 10:53 | 34.63498 | -114.38112 | 37958 ft | 351 kts | 242° |
| 2026-04-23 10:54 | 34.60392 | -114.42774 | 37958 ft | 359 kts | 238° |
| 2026-04-23 10:54 | 34.57062 | -114.47297 | 37958 ft | 361 kts | 237° |
| 2026-04-23 10:55 | 34.53761 | -114.51794 | 37960 ft | 356 kts | 237° |
| 2026-04-23 10:55 | 34.50500 | -114.56261 | 37961 ft | 356 kts | 238° |
| 2026-04-23 10:56 | 34.47206 | -114.60796 | 37967 ft | 358 kts | 239° |
| 2026-04-23 10:56 | 34.43929 | -114.65301 | 37968 ft | 356 kts | 238° |
| 2026-04-23 10:57 | 34.40631 | -114.69836 | 37967 ft | 358 kts | 238° |
| 2026-04-23 10:57 | 34.37355 | -114.74329 | 37969 ft | 359 kts | 237° |
| 2026-04-23 10:58 | 34.34040 | -114.78870 | 37969 ft | 356 kts | 238° |
| 2026-04-23 10:58 | 34.30773 | -114.83346 | 37970 ft | 357 kts | 237° |
| 2026-04-23 10:59 | 34.27481 | -114.87839 | 37967 ft | 356 kts | 237° |
| 2026-04-23 10:59 | 34.24210 | -114.92294 | 37966 ft | 358 kts | 238° |
| 2026-04-23 11:00 | 34.20942 | -114.96750 | 37963 ft | 354 kts | 238° |
| 2026-04-23 11:00 | 34.17668 | -115.01206 | 37963 ft | 355 kts | 238° |
| 2026-04-23 11:01 | 34.14399 | -115.05652 | 37959 ft | 356 kts | 237° |
| 2026-04-23 11:01 | 34.11116 | -115.10111 | 37955 ft | 356 kts | 238° |
| 2026-04-23 11:02 | 34.07804 | -115.14604 | 37956 ft | 357 kts | 237° |
| 2026-04-23 11:02 | 34.04529 | -115.19020 | 37959 ft | 355 kts | 238° |
| 2026-04-23 11:03 | 34.01253 | -115.23444 | 37959 ft | 353 kts | 237° |
| 2026-04-23 11:03 | 33.97990 | -115.27860 | 37962 ft | 354 kts | 238° |
| 2026-04-23 11:04 | 33.94726 | -115.32295 | 37965 ft | 356 kts | 237° |
| 2026-04-23 11:04 | 33.91449 | -115.36736 | 37970 ft | 354 kts | 237° |
| 2026-04-23 11:05 | 33.88173 | -115.41167 | 37967 ft | 354 kts | 238° |
| 2026-04-23 11:05 | 33.84889 | -115.45610 | 37974 ft | 356 kts | 238° |
| 2026-04-23 11:06 | 33.79987 | -115.52216 | 37984 ft | 355 kts | 238° |
| 2026-04-23 11:07 | 33.76697 | -115.56644 | 37995 ft | 353 kts | 238° |
| 2026-04-23 11:07 | 33.73431 | -115.61039 | 38005 ft | 355 kts | 237° |
| 2026-04-23 11:08 | 33.70156 | -115.65443 | 38015 ft | 354 kts | 237° |
| 2026-04-23 11:08 | 33.66841 | -115.69833 | 38012 ft | 353 kts | 237° |
| 2026-04-23 11:09 | 33.63508 | -115.74238 | 38008 ft | 358 kts | 237° |
| 2026-04-23 11:09 | 33.60393 | -115.78767 | 38003 ft | 349 kts | 242° |
| 2026-04-23 11:10 | 33.57668 | -115.83542 | 37998 ft | 347 kts | 243° |
| 2026-04-23 11:10 | 33.54974 | -115.88321 | 37985 ft | 349 kts | 243° |
| 2026-04-23 11:11 | 33.52236 | -115.93119 | 37975 ft | 348 kts | 242° |
| 2026-04-23 11:11 | 33.49491 | -115.97878 | 37965 ft | 350 kts | 242° |
| 2026-04-23 11:12 | 33.46726 | -116.02655 | 37970 ft | 348 kts | 242° |
| 2026-04-23 11:12 | 33.43968 | -116.07404 | 37972 ft | 350 kts | 243° |
| 2026-04-23 11:13 | 33.41206 | -116.12164 | 37984 ft | 348 kts | 243° |
| 2026-04-23 11:13 | 33.38444 | -116.16914 | 37988 ft | 349 kts | 243° |
| 2026-04-23 11:14 | 33.35680 | -116.21635 | 37991 ft | 347 kts | 242° |
| 2026-04-23 11:14 | 33.32283 | -116.25884 | 37995 ft | 372 kts | 225° |
| 2026-04-23 11:15 | 33.27683 | -116.28790 | 38016 ft | 381 kts | 218° |
| 2026-04-23 11:15 | 33.22877 | -116.31472 | 38012 ft | 382 kts | 218° |
| 2026-04-23 11:16 | 33.18083 | -116.34199 | 38018 ft | 381 kts | 218° |
| 2026-04-23 11:16 | 33.13320 | -116.36953 | 38027 ft | 377 kts | 218° |
| 2026-04-23 11:17 | 33.08621 | -116.39683 | 38045 ft | 374 kts | 218° |
| 2026-04-23 11:17 | 33.03896 | -116.42447 | 38045 ft | 382 kts | 218° |
| 2026-04-23 11:18 | 32.99369 | -116.45667 | 38043 ft | 370 kts | 227° |
| 2026-04-23 11:18 | 32.97365 | -116.47498 | 38050 ft | 358 kts | 229° |
| 2026-04-23 11:18 | 32.95466 | -116.49372 | 37934 ft | 358 kts | 230° |
| 2026-04-23 11:18 | 32.93568 | -116.51306 | 36791 ft | 366 kts | 230° |
| 2026-04-23 11:19 | 32.91639 | -116.53300 | 35313 ft | 378 kts | 230° |
| 2026-04-23 11:19 | 32.89651 | -116.55347 | 34080 ft | 378 kts | 230° |
| 2026-04-23 11:19 | 32.87685 | -116.57349 | 33004 ft | 377 kts | 229° |
| 2026-04-23 11:19 | 32.85687 | -116.59372 | 31802 ft | 381 kts | 228° |
| 2026-04-23 11:20 | 32.83676 | -116.61407 | 30336 ft | 390 kts | 227° |
| 2026-04-23 11:20 | 32.81595 | -116.63515 | 28850 ft | 402 kts | 226° |
| 2026-04-23 11:20 | 32.79460 | -116.65676 | 27381 ft | 416 kts | 225° |
| 2026-04-23 11:20 | 32.77261 | -116.67904 | 25925 ft | 429 kts | 226° |
| 2026-04-23 11:21 | 32.75161 | -116.70440 | 24658 ft | 429 kts | 234° |
| 2026-04-23 11:21 | 32.73530 | -116.73321 | 24081 ft | 415 kts | 244° |
| 2026-04-23 11:21 | 32.72378 | -116.76391 | 23265 ft | 411 kts | 253° |
| 2026-04-23 11:21 | 32.71880 | -116.79656 | 22732 ft | 395 kts | 269° |
| 2026-04-23 11:22 | 32.72288 | -116.82749 | 22482 ft | 376 kts | 287° |
| 2026-04-23 11:22 | 32.73529 | -116.85435 | 22239 ft | 364 kts | 304° |
| 2026-04-23 11:22 | 32.75245 | -116.87560 | 22004 ft | 352 kts | 313° |
| 2026-04-23 11:22 | 32.77117 | -116.89336 | 21762 ft | 340 kts | 317° |
| 2026-04-23 11:23 | 32.79015 | -116.90934 | 21527 ft | 326 kts | 319° |
| 2026-04-23 11:23 | 32.80929 | -116.92289 | 21292 ft | 320 kts | 328° |
| 2026-04-23 11:23 | 32.83059 | -116.93019 | 21052 ft | 320 kts | 344° |
| 2026-04-23 11:23 | 32.85292 | -116.93119 | 20814 ft | 318 kts | 355° |
| 2026-04-23 11:24 | 32.87466 | -116.92819 | 20576 ft | 313 kts | 1° |
| 2026-04-23 11:24 | 32.89572 | -116.92219 | 20344 ft | 312 kts | 12° |
| 2026-04-23 11:24 | 32.91512 | -116.91082 | 20121 ft | 313 kts | 26° |
| 2026-04-23 11:24 | 32.93221 | -116.89497 | 19901 ft | 311 kts | 34° |
| 2026-04-23 11:25 | 32.94831 | -116.87820 | 19655 ft | 303 kts | 34° |
| 2026-04-23 11:25 | 32.96374 | -116.86019 | 19247 ft | 325 kts | 47° |
| 2026-04-23 11:25 | 32.97527 | -116.83539 | 18289 ft | 369 kts | 70° |
| 2026-04-23 11:25 | 32.97814 | -116.80421 | 16992 ft | 394 kts | 97° |
| 2026-04-23 11:26 | 32.96918 | -116.77407 | 16225 ft | 386 kts | 126° |
| 2026-04-23 11:26 | 32.95107 | -116.75245 | 15863 ft | 357 kts | 154° |
| 2026-04-23 11:26 | 32.92881 | -116.74313 | 15614 ft | 325 kts | 181° |
| 2026-04-23 11:26 | 32.90704 | -116.74401 | 15363 ft | 302 kts | 194° |
| 2026-04-23 11:27 | 32.88675 | -116.74739 | 14943 ft | 296 kts | 194° |
| 2026-04-23 11:27 | 32.86621 | -116.74993 | 14320 ft | 300 kts | 191° |
| 2026-04-23 11:27 | 32.84543 | -116.75092 | 13814 ft | 299 kts | 187° |
| 2026-04-23 11:27 | 32.82452 | -116.75095 | 13259 ft | 299 kts | 186° |
| 2026-04-23 11:28 | 32.80368 | -116.75064 | 12703 ft | 299 kts | 185° |
| 2026-04-23 11:28 | 32.78310 | -116.75030 | 12168 ft | 298 kts | 185° |
| 2026-04-23 11:28 | 32.76250 | -116.75115 | 11791 ft | 286 kts | 192° |
| 2026-04-23 11:28 | 32.74415 | -116.75728 | 11574 ft | 264 kts | 215° |
| 2026-04-23 11:29 | 32.73101 | -116.77062 | 11449 ft | 240 kts | 237° |
| 2026-04-23 11:29 | 32.72209 | -116.78717 | 11284 ft | 240 kts | 245° |
| 2026-04-23 11:29 | 32.71397 | -116.80444 | 11386 ft | 236 kts | 245° |
| 2026-04-23 11:29 | 32.70662 | -116.82095 | 11329 ft | 217 kts | 250° |
| 2026-04-23 11:30 | 32.70123 | -116.83704 | 11218 ft | 202 kts | 255° |
| 2026-04-23 11:30 | 32.69664 | -116.85230 | 11003 ft | 195 kts | 255° |
| 2026-04-23 11:30 | 32.69209 | -116.86737 | 10661 ft | 195 kts | 256° |
| 2026-04-23 11:30 | 32.68932 | -116.88280 | 10317 ft | 190 kts | 275° |
| 2026-04-23 11:31 | 32.69242 | -116.89784 | 9971 ft | 186 kts | 292° |
| 2026-04-23 11:31 | 32.69700 | -116.91222 | 9614 ft | 188 kts | 291° |
| 2026-04-23 11:31 | 32.70112 | -116.92679 | 9323 ft | 185 kts | 290° |
| 2026-04-23 11:31 | 32.70501 | -116.94112 | 9042 ft | 184 kts | 290° |
| 2026-04-23 11:32 | 32.70898 | -116.95563 | 8734 ft | 184 kts | 290° |
| 2026-04-23 11:32 | 32.71290 | -116.96999 | 8428 ft | 183 kts | 290° |
| 2026-04-23 11:32 | 32.71680 | -116.98425 | 8135 ft | 182 kts | 290° |
| 2026-04-23 11:32 | 32.72067 | -116.99840 | 7860 ft | 181 kts | 290° |
| 2026-04-23 11:33 | 32.72454 | -117.01260 | 7603 ft | 180 kts | 290° |
| 2026-04-23 11:33 | 32.72841 | -117.02676 | 7314 ft | 181 kts | 290° |
| 2026-04-23 11:33 | 32.73224 | -117.04090 | 7066 ft | 180 kts | 290° |
| 2026-04-23 11:33 | 32.73610 | -117.05502 | 6821 ft | 179 kts | 290° |
| 2026-04-23 11:34 | 32.73991 | -117.06901 | 6561 ft | 179 kts | 290° |
| 2026-04-23 11:34 | 32.74377 | -117.08316 | 6290 ft | 179 kts | 290° |
| 2026-04-23 11:34 | 32.74757 | -117.09721 | 6014 ft | 180 kts | 290° |
| 2026-04-23 11:34 | 32.75141 | -117.11130 | 5740 ft | 181 kts | 290° |
| 2026-04-23 11:35 | 32.75524 | -117.12543 | 5498 ft | 180 kts | 290° |
| 2026-04-23 11:35 | 32.75910 | -117.13964 | 5222 ft | 181 kts | 290° |
| 2026-04-23 11:35 | 32.76297 | -117.15389 | 4980 ft | 181 kts | 290° |
| 2026-04-23 11:35 | 32.76681 | -117.16808 | 4719 ft | 181 kts | 290° |
| 2026-04-23 11:36 | 32.77068 | -117.18235 | 4460 ft | 182 kts | 290° |
| 2026-04-23 11:36 | 32.77457 | -117.19667 | 4249 ft | 181 kts | 290° |
| 2026-04-23 11:36 | 32.77838 | -117.21072 | 4231 ft | 180 kts | 290° |
| 2026-04-23 11:36 | 32.78171 | -117.22526 | 4230 ft | 183 kts | 279° |
| 2026-04-23 11:37 | 32.78028 | -117.24046 | 4232 ft | 188 kts | 257° |
| 2026-04-23 11:37 | 32.77628 | -117.25508 | 4230 ft | 188 kts | 256° |
| 2026-04-23 11:37 | 32.77271 | -117.27000 | 4229 ft | 187 kts | 259° |
| 2026-04-23 11:37 | 32.76951 | -117.28487 | 4231 ft | 187 kts | 259° |
| 2026-04-23 11:38 | 32.76627 | -117.29987 | 4231 ft | 187 kts | 259° |
| 2026-04-23 11:38 | 32.76378 | -117.31485 | 4226 ft | 184 kts | 274° |
| 2026-04-23 11:38 | 32.76653 | -117.32958 | 4226 ft | 180 kts | 292° |
| 2026-04-23 11:38 | 32.77070 | -117.34363 | 4226 ft | 180 kts | 291° |
| 2026-04-23 11:39 | 32.77431 | -117.35782 | 4226 ft | 182 kts | 288° |
| 2026-04-23 11:39 | 32.77776 | -117.37251 | 4225 ft | 182 kts | 288° |
| 2026-04-23 11:39 | 32.78108 | -117.38668 | 4235 ft | 173 kts | 288° |
| 2026-04-23 11:39 | 32.78419 | -117.39987 | 4229 ft | 161 kts | 289° |
| 2026-04-23 11:40 | 32.78729 | -117.41257 | 4230 ft | 161 kts | 289° |
| 2026-04-23 11:40 | 32.79036 | -117.42529 | 4197 ft | 156 kts | 289° |
| 2026-04-23 11:40 | 32.79299 | -117.43785 | 3910 ft | 160 kts | 278° |
| 2026-04-23 11:40 | 32.79073 | -117.45080 | 3655 ft | 167 kts | 249° |
| 2026-04-23 11:41 | 32.78533 | -117.46309 | 3406 ft | 168 kts | 245° |
| 2026-04-23 11:41 | 32.77971 | -117.47549 | 3153 ft | 169 kts | 246° |
| 2026-04-23 11:41 | 32.77411 | -117.48776 | 2904 ft | 170 kts | 245° |
| 2026-04-23 11:41 | 32.76841 | -117.49994 | 2656 ft | 171 kts | 243° |
| 2026-04-23 11:42 | 32.76260 | -117.51228 | 2406 ft | 171 kts | 243° |
| 2026-04-23 11:42 | 32.75690 | -117.52464 | 2157 ft | 172 kts | 246° |
| 2026-04-23 11:42 | 32.75388 | -117.53828 | 1948 ft | 167 kts | 276° |
| 2026-04-23 11:42 | 32.75751 | -117.55090 | 1943 ft | 162 kts | 304° |
| 2026-04-23 11:43 | 32.76445 | -117.56133 | 1945 ft | 162 kts | 321° |
| 2026-04-23 11:43 | 32.77443 | -117.56702 | 1946 ft | 159 kts | 352° |
| 2026-04-23 11:43 | 32.78540 | -117.56690 | 1947 ft | 157 kts | 14° |
| 2026-04-23 11:43 | 32.79490 | -117.56064 | 1952 ft | 159 kts | 41° |
| 2026-04-23 11:44 | 32.80224 | -117.55100 | 1950 ft | 157 kts | 53° |
| 2026-04-23 11:44 | 32.80808 | -117.53996 | 1949 ft | 159 kts | 59° |
| 2026-04-23 11:44 | 32.81244 | -117.52807 | 1948 ft | 160 kts | 79° |
| 2026-04-23 11:44 | 32.81163 | -117.51493 | 1951 ft | 161 kts | 103° |
| 2026-04-23 11:45 | 32.80870 | -117.50200 | 1947 ft | 161 kts | 103° |
| 2026-04-23 11:45 | 32.80584 | -117.48902 | 1952 ft | 161 kts | 103° |
| 2026-04-23 11:45 | 32.80291 | -117.47635 | 1954 ft | 161 kts | 104° |
| 2026-04-23 11:45 | 32.79979 | -117.46339 | 1954 ft | 160 kts | 104° |
| 2026-04-23 11:46 | 32.79673 | -117.45059 | 1956 ft | 162 kts | 104° |
| 2026-04-23 11:46 | 32.79364 | -117.43774 | 1953 ft | 161 kts | 104° |
| 2026-04-23 11:46 | 32.79054 | -117.42489 | 1956 ft | 162 kts | 104° |
| 2026-04-23 11:46 | 32.78745 | -117.41206 | 1956 ft | 162 kts | 103° |
| 2026-04-23 11:47 | 32.78435 | -117.39917 | 1957 ft | 162 kts | 104° |
| 2026-04-23 11:47 | 32.78125 | -117.38644 | 1957 ft | 161 kts | 103° |
| 2026-04-23 11:47 | 32.77817 | -117.37367 | 1958 ft | 162 kts | 104° |
| 2026-04-23 11:47 | 32.77507 | -117.36080 | 1957 ft | 160 kts | 104° |
| 2026-04-23 11:48 | 32.77197 | -117.34798 | 1958 ft | 162 kts | 104° |
| 2026-04-23 11:48 | 32.76883 | -117.33511 | 1958 ft | 160 kts | 103° |
| 2026-04-23 11:48 | 32.76581 | -117.32252 | 1966 ft | 157 kts | 104° |
| 2026-04-23 11:48 | 32.76295 | -117.31070 | 1962 ft | 145 kts | 104° |
| 2026-04-23 11:49 | 32.76017 | -117.29922 | 1792 ft | 141 kts | 104° |
| 2026-04-23 11:49 | 32.75754 | -117.28834 | 1596 ft | 138 kts | 104° |
| 2026-04-23 11:49 | 32.75489 | -117.27739 | 1402 ft | 138 kts | 105° |
| 2026-04-23 11:49 | 32.75223 | -117.26643 | 1208 ft | 138 kts | 104° |
| 2026-04-23 11:50 | 32.74971 | -117.25543 | 1010 ft | 137 kts | 104° |
| 2026-04-23 11:50 | 32.74696 | -117.24464 | 831 ft | 136 kts | 107° |
| 2026-04-23 11:50 | 32.74428 | -117.23388 | 626 ft | 137 kts | 105° |
| 2026-04-23 11:50 | 32.74167 | -117.22299 | 444 ft | 135 kts | 105° |
| 2026-04-23 11:51 | 32.73905 | -117.21235 | 254 ft | 135 kts | 105° |
| 2026-04-23 11:51 | 32.73643 | -117.20152 | 57 ft | 135 kts | 106° |
| 2026-04-23 11:51 | 32.73405 | -117.19168 | 21 ft | 103 kts | 109° |
| 2026-04-23 11:51 | 32.73247 | -117.18518 | 19 ft | 67 kts | 105° |
| 2026-04-23 11:52 | 32.73140 | -117.18080 | 19 ft | 38 kts | 107° |
| 2026-04-23 11:52 | 32.73073 | -117.17808 | 21 ft | 29 kts | 106° |
| 2026-04-23 11:52 | 32.73029 | -117.17679 | 24 ft | 11 kts | 147° |
| 2026-04-23 11:52 | 32.72966 | -117.17709 | 23 ft | 11 kts | 245° |
| 2026-04-23 11:53 | 32.72973 | -117.17807 | 21 ft | 12 kts | 287° |
| 2026-04-23 11:53 | 32.72996 | -117.17907 | 19 ft | 13 kts | 285° |
| 2026-04-23 11:53 | 32.73022 | -117.18014 | 18 ft | 14 kts | 287° |
| 2026-04-23 11:53 | 32.73051 | -117.18127 | 18 ft | 13 kts | 287° |
| 2026-04-23 11:54 | 32.73077 | -117.18236 | 18 ft | 13 kts | 285° |
| 2026-04-23 11:54 | 32.73102 | -117.18343 | 18 ft | 13 kts | 286° |
| 2026-04-23 11:54 | 32.73128 | -117.18449 | 18 ft | 13 kts | 286° |
| 2026-04-23 11:54 | 32.73154 | -117.18551 | 18 ft | 12 kts | 286° |
| 2026-04-23 11:55 | 32.73178 | -117.18652 | 18 ft | 12 kts | 286° |
| 2026-04-23 11:55 | 32.73201 | -117.18748 | 18 ft | 11 kts | 286° |
| 2026-04-23 11:55 | 32.73223 | -117.18837 | 19 ft | 11 kts | 285° |
| 2026-04-23 11:55 | 32.73243 | -117.18922 | 19 ft | 10 kts | 286° |
| 2026-04-23 11:56 | 32.73268 | -117.19028 | 20 ft | 15 kts | 286° |
| 2026-04-23 11:56 | 32.73298 | -117.19151 | 20 ft | 15 kts | 286° |
| 2026-04-23 11:56 | 32.73327 | -117.19270 | 21 ft | 14 kts | 286° |
| 2026-04-23 11:56 | 32.73354 | -117.19382 | 21 ft | 14 kts | 286° |
| 2026-04-23 11:57 | 32.73381 | -117.19492 | 21 ft | 13 kts | 286° |
| 2026-04-23 11:57 | 32.73409 | -117.19607 | 19 ft | 14 kts | 286° |
| 2026-04-23 11:57 | 32.73429 | -117.19689 | 19 ft | 9 kts | 285° |
| 2026-04-23 11:57 | 32.73436 | -117.19720 | 19 ft | 3 kts | 284° |
| 2026-04-23 11:58 | 32.73436 | -117.19752 | 19 ft | 4 kts | 236° |
| 2026-04-23 11:58 | 32.73422 | -117.19782 | 19 ft | 4 kts | 244° |
| 2026-04-23 11:58 | 32.73394 | -117.19807 | 18 ft | 3 kts | 205° |
| 2026-04-23 11:58 | 32.73386 | -117.19812 | 18 ft | 2 kts | 206° |
| 2026-04-23 11:59 | 32.73383 | -117.19814 | 18 ft | 0 kts | 206° |